sensor_id;sensor_type;location;lat;lon;timestamp;temperature;humidity
23597;DHT22;40226;50.874;4.394;2023-04-12T00:02:21;9.20;99.90
23597;DHT22;40226;50.874;4.394;2023-04-12T00:04:47;9.20;99.90
23597;DHT22;40226;50.874;4.394;2023-04-12T00:07:22;9.10;99.90
23597;DHT22;40226;50.874;4.394;2023-04-12T00:09:48;9.20;99.90
23597;DHT22;40226;50.874;4.394;2023-04-12T00:12:14;9.30;99.90
23597;DHT22;40226;50.874;4.394;2023-04-12T00:14:42;9.20;99.90
23597;DHT22;40226;50.874;4.394;2023-04-12T00:17:08;9.20;99.90
23597;DHT22;40226;50.874;4.394;2023-04-12T00:19:33;9.20;99.90
23597;DHT22;40226;50.874;4.394;2023-04-12T00:21:59;9.20;99.90
23597;DHT22;40226;50.874;4.394;2023-04-12T00:24:24;9.10;99.90
23597;DHT22;40226;50.874;4.394;2023-04-12T00:26:51;9.20;99.90
23597;DHT22;40226;50.874;4.394;2023-04-12T00:29:16;9.20;99.90
23597;DHT22;40226;50.874;4.394;2023-04-12T00:31:42;9.20;99.90
23597;DHT22;40226;50.874;4.394;2023-04-12T00:34:07;9.10;99.90
23597;DHT22;40226;50.874;4.394;2023-04-12T00:36:33;9.10;99.90
23597;DHT22;40226;50.874;4.394;2023-04-12T00:38:58;9.10;99.90
23597;DHT22;40226;50.874;4.394;2023-04-12T00:41:25;9.00;99.90
23597;DHT22;40226;50.874;4.394;2023-04-12T00:43:50;9.00;99.90
23597;DHT22;40226;50.874;4.394;2023-04-12T00:46:17;9.10;99.90
23597;DHT22;40226;50.874;4.394;2023-04-12T00:48:44;9.10;99.90
23597;DHT22;40226;50.874;4.394;2023-04-12T00:51:12;9.10;99.90
23597;DHT22;40226;50.874;4.394;2023-04-12T00:53:39;9.20;99.90
23597;DHT22;40226;50.874;4.394;2023-04-12T00:56:05;9.20;99.90
23597;DHT22;40226;50.874;4.394;2023-04-12T00:58:32;9.20;99.90
23597;DHT22;40226;50.874;4.394;2023-04-12T01:00:57;9.10;99.90
23597;DHT22;40226;50.874;4.394;2023-04-12T01:03:23;9.10;99.90
23597;DHT22;40226;50.874;4.394;2023-04-12T01:09:00;8.90;99.90
23597;DHT22;40226;50.874;4.394;2023-04-12T01:11:37;9.00;99.90
23597;DHT22;40226;50.874;4.394;2023-04-12T01:14:29;9.10;99.90
23597;DHT22;40226;50.874;4.394;2023-04-12T01:16:59;9.00;99.90
23597;DHT22;40226;50.874;4.394;2023-04-12T01:20:14;9.00;99.90
23597;DHT22;40226;50.874;4.394;2023-04-12T01:28:15;9.00;99.90
23597;DHT22;40226;50.874;4.394;2023-04-12T01:30:44;9.00;99.90
23597;DHT22;40226;50.874;4.394;2023-04-12T01:33:11;9.00;99.90
23597;DHT22;40226;50.874;4.394;2023-04-12T01:35:38;9.10;99.90
23597;DHT22;40226;50.874;4.394;2023-04-12T01:38:05;9.10;99.90
23597;DHT22;40226;50.874;4.394;2023-04-12T01:40:31;9.20;99.90
23597;DHT22;40226;50.874;4.394;2023-04-12T01:43:23;9.20;99.90
23597;DHT22;40226;50.874;4.394;2023-04-12T01:45:49;9.10;99.90
23597;DHT22;40226;50.874;4.394;2023-04-12T01:48:14;9.20;99.90
23597;DHT22;40226;50.874;4.394;2023-04-12T01:51:05;9.10;99.90
23597;DHT22;40226;50.874;4.394;2023-04-12T01:53:38;9.10;99.90
23597;DHT22;40226;50.874;4.394;2023-04-12T01:56:09;9.10;99.90
23597;DHT22;40226;50.874;4.394;2023-04-12T01:58:36;9.00;99.90
23597;DHT22;40226;50.874;4.394;2023-04-12T02:01:02;9.10;99.90
23597;DHT22;40226;50.874;4.394;2023-04-12T02:03:28;9.20;99.90
23597;DHT22;40226;50.874;4.394;2023-04-12T02:05:58;9.10;99.90
23597;DHT22;40226;50.874;4.394;2023-04-12T02:08:24;9.20;99.90
23597;DHT22;40226;50.874;4.394;2023-04-12T02:10:50;9.20;99.90
23597;DHT22;40226;50.874;4.394;2023-04-12T02:13:16;9.20;99.90
23597;DHT22;40226;50.874;4.394;2023-04-12T02:15:42;9.20;99.90
23597;DHT22;40226;50.874;4.394;2023-04-12T02:18:08;9.20;99.90
23597;DHT22;40226;50.874;4.394;2023-04-12T02:20:34;9.20;99.90
23597;DHT22;40226;50.874;4.394;2023-04-12T02:23:00;9.20;99.90
23597;DHT22;40226;50.874;4.394;2023-04-12T02:25:25;9.10;99.90
23597;DHT22;40226;50.874;4.394;2023-04-12T02:27:51;9.10;99.90
23597;DHT22;40226;50.874;4.394;2023-04-12T02:30:17;9.20;99.90
23597;DHT22;40226;50.874;4.394;2023-04-12T02:32:44;9.10;99.90
23597;DHT22;40226;50.874;4.394;2023-04-12T02:35:13;9.20;99.90
23597;DHT22;40226;50.874;4.394;2023-04-12T02:37:42;9.20;99.90
23597;DHT22;40226;50.874;4.394;2023-04-12T02:40:12;9.10;99.90
23597;DHT22;40226;50.874;4.394;2023-04-12T02:42:38;9.10;99.90
23597;DHT22;40226;50.874;4.394;2023-04-12T02:45:04;9.10;99.90
23597;DHT22;40226;50.874;4.394;2023-04-12T02:47:30;9.00;99.90
23597;DHT22;40226;50.874;4.394;2023-04-12T02:49:56;9.10;99.90
23597;DHT22;40226;50.874;4.394;2023-04-12T02:52:22;9.00;99.90
23597;DHT22;40226;50.874;4.394;2023-04-12T02:54:51;9.10;99.90
23597;DHT22;40226;50.874;4.394;2023-04-12T02:57:17;9.10;99.90
23597;DHT22;40226;50.874;4.394;2023-04-12T02:59:42;9.10;99.90
23597;DHT22;40226;50.874;4.394;2023-04-12T03:02:08;9.10;99.90
23597;DHT22;40226;50.874;4.394;2023-04-12T03:04:34;9.10;99.90
23597;DHT22;40226;50.874;4.394;2023-04-12T03:07:04;9.10;99.90
23597;DHT22;40226;50.874;4.394;2023-04-12T03:09:30;9.10;99.90
23597;DHT22;40226;50.874;4.394;2023-04-12T03:11:56;9.10;99.90
23597;DHT22;40226;50.874;4.394;2023-04-12T03:14:22;9.00;99.90
23597;DHT22;40226;50.874;4.394;2023-04-12T03:16:48;9.10;99.90
23597;DHT22;40226;50.874;4.394;2023-04-12T03:19:15;9.10;99.90
23597;DHT22;40226;50.874;4.394;2023-04-12T03:21:41;9.10;99.90
23597;DHT22;40226;50.874;4.394;2023-04-12T03:24:07;9.00;99.90
23597;DHT22;40226;50.874;4.394;2023-04-12T03:26:33;9.10;99.90
23597;DHT22;40226;50.874;4.394;2023-04-12T03:29:03;9.00;99.90
23597;DHT22;40226;50.874;4.394;2023-04-12T03:31:33;9.00;99.90
23597;DHT22;40226;50.874;4.394;2023-04-12T03:33:59;9.00;99.90
23597;DHT22;40226;50.874;4.394;2023-04-12T03:36:25;9.00;99.90
23597;DHT22;40226;50.874;4.394;2023-04-12T03:38:54;9.10;99.90
23597;DHT22;40226;50.874;4.394;2023-04-12T03:41:22;9.00;99.90
23597;DHT22;40226;50.874;4.394;2023-04-12T03:43:48;9.10;99.90
23597;DHT22;40226;50.874;4.394;2023-04-12T03:46:14;9.10;99.90
23597;DHT22;40226;50.874;4.394;2023-04-12T03:48:40;9.10;99.90
23597;DHT22;40226;50.874;4.394;2023-04-12T03:51:07;9.10;99.90
23597;DHT22;40226;50.874;4.394;2023-04-12T03:53:33;9.00;99.90
23597;DHT22;40226;50.874;4.394;2023-04-12T03:55:59;9.00;99.90
23597;DHT22;40226;50.874;4.394;2023-04-12T03:58:24;9.00;99.90
23597;DHT22;40226;50.874;4.394;2023-04-12T04:00:50;9.10;99.90
23597;DHT22;40226;50.874;4.394;2023-04-12T04:03:17;9.00;99.90
23597;DHT22;40226;50.874;4.394;2023-04-12T04:05:42;9.10;99.90
23597;DHT22;40226;50.874;4.394;2023-04-12T04:08:08;9.10;99.90
23597;DHT22;40226;50.874;4.394;2023-04-12T04:10:34;9.10;99.90
23597;DHT22;40226;50.874;4.394;2023-04-12T04:13:00;9.10;99.90
23597;DHT22;40226;50.874;4.394;2023-04-12T04:15:26;9.10;99.90
23597;DHT22;40226;50.874;4.394;2023-04-12T04:17:52;9.10;99.90
23597;DHT22;40226;50.874;4.394;2023-04-12T04:20:18;9.10;99.90
23597;DHT22;40226;50.874;4.394;2023-04-12T04:22:44;9.10;99.90
23597;DHT22;40226;50.874;4.394;2023-04-12T04:25:13;9.10;99.90
23597;DHT22;40226;50.874;4.394;2023-04-12T04:27:42;9.10;99.90
23597;DHT22;40226;50.874;4.394;2023-04-12T04:30:10;9.10;99.90
23597;DHT22;40226;50.874;4.394;2023-04-12T04:32:39;9.20;99.90
23597;DHT22;40226;50.874;4.394;2023-04-12T04:35:05;9.10;99.90
23597;DHT22;40226;50.874;4.394;2023-04-12T04:37:31;9.10;99.90
23597;DHT22;40226;50.874;4.394;2023-04-12T04:40:00;9.10;99.90
23597;DHT22;40226;50.874;4.394;2023-04-12T04:42:26;9.10;99.90
23597;DHT22;40226;50.874;4.394;2023-04-12T04:44:54;9.20;99.90
23597;DHT22;40226;50.874;4.394;2023-04-12T04:47:28;9.10;99.90
23597;DHT22;40226;50.874;4.394;2023-04-12T04:49:58;9.10;99.90
23597;DHT22;40226;50.874;4.394;2023-04-12T04:52:24;9.10;99.90
23597;DHT22;40226;50.874;4.394;2023-04-12T04:54:50;9.20;99.90
23597;DHT22;40226;50.874;4.394;2023-04-12T04:57:16;9.20;99.90
23597;DHT22;40226;50.874;4.394;2023-04-12T04:59:41;9.20;99.90
23597;DHT22;40226;50.874;4.394;2023-04-12T05:02:07;9.20;99.90
23597;DHT22;40226;50.874;4.394;2023-04-12T05:04:33;9.20;99.90
23597;DHT22;40226;50.874;4.394;2023-04-12T05:06:59;9.20;99.90
23597;DHT22;40226;50.874;4.394;2023-04-12T05:09:24;9.20;99.90
23597;DHT22;40226;50.874;4.394;2023-04-12T05:11:50;9.20;99.90
23597;DHT22;40226;50.874;4.394;2023-04-12T05:14:16;9.40;99.90
23597;DHT22;40226;50.874;4.394;2023-04-12T05:16:41;9.30;99.90
23597;DHT22;40226;50.874;4.394;2023-04-12T05:19:07;9.20;99.90
23597;DHT22;40226;50.874;4.394;2023-04-12T05:21:32;9.20;99.90
23597;DHT22;40226;50.874;4.394;2023-04-12T05:23:58;9.20;99.90
23597;DHT22;40226;50.874;4.394;2023-04-12T05:26:24;9.30;99.90
23597;DHT22;40226;50.874;4.394;2023-04-12T05:28:50;9.20;99.90
23597;DHT22;40226;50.874;4.394;2023-04-12T05:31:16;9.30;99.90
23597;DHT22;40226;50.874;4.394;2023-04-12T05:33:42;9.40;99.90
23597;DHT22;40226;50.874;4.394;2023-04-12T05:36:09;9.40;99.90
23597;DHT22;40226;50.874;4.394;2023-04-12T05:38:35;9.60;99.90
23597;DHT22;40226;50.874;4.394;2023-04-12T05:41:00;9.40;99.90
23597;DHT22;40226;50.874;4.394;2023-04-12T05:43:30;9.50;99.90
23597;DHT22;40226;50.874;4.394;2023-04-12T05:45:55;9.50;99.90
23597;DHT22;40226;50.874;4.394;2023-04-12T05:48:21;9.60;99.90
23597;DHT22;40226;50.874;4.394;2023-04-12T05:50:51;9.50;99.90
23597;DHT22;40226;50.874;4.394;2023-04-12T05:53:17;9.40;99.90
23597;DHT22;40226;50.874;4.394;2023-04-12T05:55:42;9.40;99.90
23597;DHT22;40226;50.874;4.394;2023-04-12T05:58:08;9.40;99.90
23597;DHT22;40226;50.874;4.394;2023-04-12T06:00:35;9.50;99.90
23597;DHT22;40226;50.874;4.394;2023-04-12T06:03:00;9.40;99.90
23597;DHT22;40226;50.874;4.394;2023-04-12T06:05:26;9.50;99.90
23597;DHT22;40226;50.874;4.394;2023-04-12T06:07:52;9.50;99.90
23597;DHT22;40226;50.874;4.394;2023-04-12T06:10:18;9.40;99.90
23597;DHT22;40226;50.874;4.394;2023-04-12T06:12:44;9.60;99.90
23597;DHT22;40226;50.874;4.394;2023-04-12T06:15:09;9.60;99.90
23597;DHT22;40226;50.874;4.394;2023-04-12T06:17:35;9.50;99.90
23597;DHT22;40226;50.874;4.394;2023-04-12T06:20:02;9.50;99.90
23597;DHT22;40226;50.874;4.394;2023-04-12T06:22:31;9.40;99.90
23597;DHT22;40226;50.874;4.394;2023-04-12T06:24:57;9.30;99.90
23597;DHT22;40226;50.874;4.394;2023-04-12T06:27:23;9.30;99.90
23597;DHT22;40226;50.874;4.394;2023-04-12T06:29:50;9.50;99.90
23597;DHT22;40226;50.874;4.394;2023-04-12T06:32:15;9.50;99.90
23597;DHT22;40226;50.874;4.394;2023-04-12T06:34:41;9.50;99.90
23597;DHT22;40226;50.874;4.394;2023-04-12T06:37:06;9.50;99.90
23597;DHT22;40226;50.874;4.394;2023-04-12T06:39:32;9.40;99.90
23597;DHT22;40226;50.874;4.394;2023-04-12T06:41:58;9.40;99.90
23597;DHT22;40226;50.874;4.394;2023-04-12T06:44:23;9.50;99.90
23597;DHT22;40226;50.874;4.394;2023-04-12T06:46:51;9.40;99.90
23597;DHT22;40226;50.874;4.394;2023-04-12T06:49:17;9.40;99.90
23597;DHT22;40226;50.874;4.394;2023-04-12T06:51:43;9.40;99.90
23597;DHT22;40226;50.874;4.394;2023-04-12T06:54:08;9.40;99.90
23597;DHT22;40226;50.874;4.394;2023-04-12T06:56:36;9.20;99.90
23597;DHT22;40226;50.874;4.394;2023-04-12T06:59:02;9.30;99.90
23597;DHT22;40226;50.874;4.394;2023-04-12T07:01:27;9.20;99.90
23597;DHT22;40226;50.874;4.394;2023-04-12T07:03:53;9.50;99.90
23597;DHT22;40226;50.874;4.394;2023-04-12T07:06:19;9.40;99.90
23597;DHT22;40226;50.874;4.394;2023-04-12T07:08:45;9.40;99.90
23597;DHT22;40226;50.874;4.394;2023-04-12T07:11:10;9.40;99.90
23597;DHT22;40226;50.874;4.394;2023-04-12T07:13:36;9.30;99.90
23597;DHT22;40226;50.874;4.394;2023-04-12T07:16:02;9.20;99.90
23597;DHT22;40226;50.874;4.394;2023-04-12T07:18:27;9.20;99.90
23597;DHT22;40226;50.874;4.394;2023-04-12T07:20:54;9.40;99.90
23597;DHT22;40226;50.874;4.394;2023-04-12T07:23:21;9.60;99.90
23597;DHT22;40226;50.874;4.394;2023-04-12T07:25:47;9.50;99.90
23597;DHT22;40226;50.874;4.394;2023-04-12T07:28:13;9.50;99.90
23597;DHT22;40226;50.874;4.394;2023-04-12T07:30:38;9.60;99.90
23597;DHT22;40226;50.874;4.394;2023-04-12T07:33:05;9.80;99.90
23597;DHT22;40226;50.874;4.394;2023-04-12T07:35:31;9.80;99.90
23597;DHT22;40226;50.874;4.394;2023-04-12T07:37:57;9.90;99.90
23597;DHT22;40226;50.874;4.394;2023-04-12T07:40:23;10.10;99.90
23597;DHT22;40226;50.874;4.394;2023-04-12T07:42:49;9.90;99.90
23597;DHT22;40226;50.874;4.394;2023-04-12T07:45:14;9.70;99.90
23597;DHT22;40226;50.874;4.394;2023-04-12T07:47:40;10.00;99.90
23597;DHT22;40226;50.874;4.394;2023-04-12T07:50:06;10.20;99.90
23597;DHT22;40226;50.874;4.394;2023-04-12T07:52:32;10.20;99.90
23597;DHT22;40226;50.874;4.394;2023-04-12T07:54:58;10.00;99.90
23597;DHT22;40226;50.874;4.394;2023-04-12T07:57:24;10.10;99.90
23597;DHT22;40226;50.874;4.394;2023-04-12T07:59:50;10.20;99.90
23597;DHT22;40226;50.874;4.394;2023-04-12T08:02:16;10.20;99.90
23597;DHT22;40226;50.874;4.394;2023-04-12T08:04:52;10.40;99.90
23597;DHT22;40226;50.874;4.394;2023-04-12T08:07:19;10.40;99.90
23597;DHT22;40226;50.874;4.394;2023-04-12T08:09:46;10.30;99.90
23597;DHT22;40226;50.874;4.394;2023-04-12T08:12:12;10.20;99.90
23597;DHT22;40226;50.874;4.394;2023-04-12T08:14:38;10.20;99.90
23597;DHT22;40226;50.874;4.394;2023-04-12T08:17:03;10.20;99.90
23597;DHT22;40226;50.874;4.394;2023-04-12T08:19:29;10.30;99.90
23597;DHT22;40226;50.874;4.394;2023-04-12T08:21:54;10.50;99.90
23597;DHT22;40226;50.874;4.394;2023-04-12T08:24:20;10.40;99.90
23597;DHT22;40226;50.874;4.394;2023-04-12T08:26:46;10.30;99.90
23597;DHT22;40226;50.874;4.394;2023-04-12T08:29:11;10.50;99.90
23597;DHT22;40226;50.874;4.394;2023-04-12T08:31:38;10.90;99.90
23597;DHT22;40226;50.874;4.394;2023-04-12T08:34:03;11.10;99.90
23597;DHT22;40226;50.874;4.394;2023-04-12T08:36:29;11.00;99.90
23597;DHT22;40226;50.874;4.394;2023-04-12T08:38:58;11.00;99.90
23597;DHT22;40226;50.874;4.394;2023-04-12T08:41:24;11.00;99.90
23597;DHT22;40226;50.874;4.394;2023-04-12T08:43:50;11.10;99.90
23597;DHT22;40226;50.874;4.394;2023-04-12T08:46:16;11.20;99.90
23597;DHT22;40226;50.874;4.394;2023-04-12T08:48:44;11.10;99.90
23597;DHT22;40226;50.874;4.394;2023-04-12T08:51:16;11.10;99.90
23597;DHT22;40226;50.874;4.394;2023-04-12T08:53:42;11.20;99.90
23597;DHT22;40226;50.874;4.394;2023-04-12T08:56:09;11.30;99.90
23597;DHT22;40226;50.874;4.394;2023-04-12T08:58:43;11.20;99.90
23597;DHT22;40226;50.874;4.394;2023-04-12T09:01:11;11.50;99.90
23597;DHT22;40226;50.874;4.394;2023-04-12T09:03:40;11.80;99.90
23597;DHT22;40226;50.874;4.394;2023-04-12T09:06:07;11.90;99.90
23597;DHT22;40226;50.874;4.394;2023-04-12T09:08:32;11.90;99.90
23597;DHT22;40226;50.874;4.394;2023-04-12T09:10:58;11.80;99.90
23597;DHT22;40226;50.874;4.394;2023-04-12T09:13:33;11.70;99.90
23597;DHT22;40226;50.874;4.394;2023-04-12T09:16:01;11.40;99.90
23597;DHT22;40226;50.874;4.394;2023-04-12T09:18:27;11.50;99.90
23597;DHT22;40226;50.874;4.394;2023-04-12T09:21:07;11.80;99.90
23597;DHT22;40226;50.874;4.394;2023-04-12T09:23:33;11.50;99.90
23597;DHT22;40226;50.874;4.394;2023-04-12T09:26:02;11.50;99.90
23597;DHT22;40226;50.874;4.394;2023-04-12T09:28:29;11.70;99.90
23597;DHT22;40226;50.874;4.394;2023-04-12T09:30:57;12.10;99.90
23597;DHT22;40226;50.874;4.394;2023-04-12T09:33:36;12.00;99.90
23597;DHT22;40226;50.874;4.394;2023-04-12T09:36:04;12.00;99.90
23597;DHT22;40226;50.874;4.394;2023-04-12T09:38:30;11.90;99.90
23597;DHT22;40226;50.874;4.394;2023-04-12T09:40:56;11.80;99.90
23597;DHT22;40226;50.874;4.394;2023-04-12T09:43:36;12.00;99.90
23597;DHT22;40226;50.874;4.394;2023-04-12T09:46:12;12.40;99.00
23597;DHT22;40226;50.874;4.394;2023-04-12T09:49:00;12.40;93.10
23597;DHT22;40226;50.874;4.394;2023-04-12T09:54:01;12.20;99.90
23597;DHT22;40226;50.874;4.394;2023-04-12T09:56:33;11.80;99.90
23597;DHT22;40226;50.874;4.394;2023-04-12T09:59:01;11.60;99.90
23597;DHT22;40226;50.874;4.394;2023-04-12T10:01:29;11.80;99.90
23597;DHT22;40226;50.874;4.394;2023-04-12T10:03:58;11.90;99.90
23597;DHT22;40226;50.874;4.394;2023-04-12T10:06:24;11.90;99.90
23597;DHT22;40226;50.874;4.394;2023-04-12T10:08:51;12.30;99.90
23597;DHT22;40226;50.874;4.394;2023-04-12T10:11:18;12.60;95.80
23597;DHT22;40226;50.874;4.394;2023-04-12T10:13:44;12.60;93.10
23597;DHT22;40226;50.874;4.394;2023-04-12T10:16:10;12.30;89.00
23597;DHT22;40226;50.874;4.394;2023-04-12T10:18:38;12.10;99.10
23597;DHT22;40226;50.874;4.394;2023-04-12T10:21:04;12.20;97.10
23597;DHT22;40226;50.874;4.394;2023-04-12T10:23:31;12.50;93.50
23597;DHT22;40226;50.874;4.394;2023-04-12T10:25:58;12.20;90.20
23597;DHT22;40226;50.874;4.394;2023-04-12T10:28:24;12.00;99.90
23597;DHT22;40226;50.874;4.394;2023-04-12T10:30:50;11.80;99.90
23597;DHT22;40226;50.874;4.394;2023-04-12T10:33:18;11.70;99.90
23597;DHT22;40226;50.874;4.394;2023-04-12T10:35:59;11.60;99.90
23597;DHT22;40226;50.874;4.394;2023-04-12T10:38:27;11.80;99.90
23597;DHT22;40226;50.874;4.394;2023-04-12T10:43:36;12.30;99.90
23597;DHT22;40226;50.874;4.394;2023-04-12T10:46:02;12.20;99.90
23597;DHT22;40226;50.874;4.394;2023-04-12T10:53:39;12.50;36.80
23597;DHT22;40226;50.874;4.394;2023-04-12T10:56:34;12.60;29.90
23597;DHT22;40226;50.874;4.394;2023-04-12T10:59:02;12.70;1.00
23597;DHT22;40226;50.874;4.394;2023-04-12T11:01:29;12.90;1.00
23597;DHT22;40226;50.874;4.394;2023-04-12T11:04:18;13.30;1.00
23597;DHT22;40226;50.874;4.394;2023-04-12T11:09:58;13.60;1.00
23597;DHT22;40226;50.874;4.394;2023-04-12T11:14:45;13.60;1.00
23597;DHT22;40226;50.874;4.394;2023-04-12T11:19:44;12.70;1.00
23597;DHT22;40226;50.874;4.394;2023-04-12T11:22:12;12.40;1.00
23597;DHT22;40226;50.874;4.394;2023-04-12T11:27:04;12.50;1.00
23597;DHT22;40226;50.874;4.394;2023-04-12T11:29:30;12.80;1.00
23597;DHT22;40226;50.874;4.394;2023-04-12T11:32:02;13.50;1.00
23597;DHT22;40226;50.874;4.394;2023-04-12T11:34:32;14.10;1.00
23597;DHT22;40226;50.874;4.394;2023-04-12T11:36:58;14.40;1.00
23597;DHT22;40226;50.874;4.394;2023-04-12T11:39:25;14.50;1.00
23597;DHT22;40226;50.874;4.394;2023-04-12T11:41:54;14.70;1.00
23597;DHT22;40226;50.874;4.394;2023-04-12T11:44:21;14.00;1.00
23597;DHT22;40226;50.874;4.394;2023-04-12T11:46:47;13.00;20.30
23597;DHT22;40226;50.874;4.394;2023-04-12T11:49:18;11.80;99.90
23597;DHT22;40226;50.874;4.394;2023-04-12T11:51:44;11.10;99.90
23597;DHT22;40226;50.874;4.394;2023-04-12T11:54:11;10.60;99.90
23597;DHT22;40226;50.874;4.394;2023-04-12T11:56:37;9.90;99.90
23597;DHT22;40226;50.874;4.394;2023-04-12T11:59:04;9.40;99.90
23597;DHT22;40226;50.874;4.394;2023-04-12T12:01:30;9.20;99.90
23597;DHT22;40226;50.874;4.394;2023-04-12T12:03:57;9.20;99.90
23597;DHT22;40226;50.874;4.394;2023-04-12T12:06:24;9.20;99.90
23597;DHT22;40226;50.874;4.394;2023-04-12T12:08:51;9.10;99.90
23597;DHT22;40226;50.874;4.394;2023-04-12T12:11:19;9.10;99.90
23597;DHT22;40226;50.874;4.394;2023-04-12T12:13:47;9.20;99.90
23597;DHT22;40226;50.874;4.394;2023-04-12T12:16:14;9.40;99.90
23597;DHT22;40226;50.874;4.394;2023-04-12T12:18:43;9.40;99.90
23597;DHT22;40226;50.874;4.394;2023-04-12T12:21:11;9.80;99.90
23597;DHT22;40226;50.874;4.394;2023-04-12T12:23:37;10.20;99.90
23597;DHT22;40226;50.874;4.394;2023-04-12T12:26:04;10.30;99.90
23597;DHT22;40226;50.874;4.394;2023-04-12T12:28:39;10.50;99.90
23597;DHT22;40226;50.874;4.394;2023-04-12T12:31:06;10.20;99.90
23597;DHT22;40226;50.874;4.394;2023-04-12T12:33:38;10.30;99.90
23597;DHT22;40226;50.874;4.394;2023-04-12T12:36:05;10.30;99.90
23597;DHT22;40226;50.874;4.394;2023-04-12T12:38:35;10.40;99.90
23597;DHT22;40226;50.874;4.394;2023-04-12T12:43:52;11.00;99.90
23597;DHT22;40226;50.874;4.394;2023-04-12T12:46:18;11.20;99.90
23597;DHT22;40226;50.874;4.394;2023-04-12T12:48:45;11.30;99.90
23597;DHT22;40226;50.874;4.394;2023-04-12T12:51:13;11.40;99.90
23597;DHT22;40226;50.874;4.394;2023-04-12T12:53:42;11.30;99.90
23597;DHT22;40226;50.874;4.394;2023-04-12T12:56:08;11.20;99.90
23597;DHT22;40226;50.874;4.394;2023-04-12T12:58:36;11.00;99.90
23597;DHT22;40226;50.874;4.394;2023-04-12T13:01:03;11.00;99.90
23597;DHT22;40226;50.874;4.394;2023-04-12T13:03:29;11.10;99.90
23597;DHT22;40226;50.874;4.394;2023-04-12T13:05:55;11.20;94.00
23597;DHT22;40226;50.874;4.394;2023-04-12T13:08:24;11.40;91.80
23597;DHT22;40226;50.874;4.394;2023-04-12T13:10:50;11.40;66.60
23597;DHT22;40226;50.874;4.394;2023-04-12T13:13:16;11.70;59.00
23597;DHT22;40226;50.874;4.394;2023-04-12T13:15:42;12.20;3.80
23597;DHT22;40226;50.874;4.394;2023-04-12T13:18:08;13.00;1.00
23597;DHT22;40226;50.874;4.394;2023-04-12T13:20:33;13.50;1.00
23597;DHT22;40226;50.874;4.394;2023-04-12T13:22:59;13.30;1.00
23597;DHT22;40226;50.874;4.394;2023-04-12T13:25:25;12.90;1.00
23597;DHT22;40226;50.874;4.394;2023-04-12T13:27:51;12.10;1.00
23597;DHT22;40226;50.874;4.394;2023-04-12T13:30:20;11.80;1.00
23597;DHT22;40226;50.874;4.394;2023-04-12T13:32:45;11.70;39.50
23597;DHT22;40226;50.874;4.394;2023-04-12T13:35:11;11.60;41.90
23597;DHT22;40226;50.874;4.394;2023-04-12T13:37:37;11.50;24.30
23597;DHT22;40226;50.874;4.394;2023-04-12T13:40:03;11.40;53.00
23597;DHT22;40226;50.874;4.394;2023-04-12T13:42:29;11.10;42.40
23597;DHT22;40226;50.874;4.394;2023-04-12T13:44:55;10.80;92.60
23597;DHT22;40226;50.874;4.394;2023-04-12T13:47:21;10.70;96.80
23597;DHT22;40226;50.874;4.394;2023-04-12T13:49:47;10.50;95.60
23597;DHT22;40226;50.874;4.394;2023-04-12T13:52:12;10.40;99.90
23597;DHT22;40226;50.874;4.394;2023-04-12T13:54:38;10.30;99.90
23597;DHT22;40226;50.874;4.394;2023-04-12T13:57:05;10.20;99.90
23597;DHT22;40226;50.874;4.394;2023-04-12T13:59:31;10.00;99.90
23597;DHT22;40226;50.874;4.394;2023-04-12T14:01:57;9.80;99.90
23597;DHT22;40226;50.874;4.394;2023-04-12T14:04:22;9.70;99.90
23597;DHT22;40226;50.874;4.394;2023-04-12T14:06:48;9.70;99.90
23597;DHT22;40226;50.874;4.394;2023-04-12T14:09:24;9.80;99.90
23597;DHT22;40226;50.874;4.394;2023-04-12T14:11:51;10.70;99.90
23597;DHT22;40226;50.874;4.394;2023-04-12T14:14:19;11.40;91.80
23597;DHT22;40226;50.874;4.394;2023-04-12T14:16:45;11.30;71.10
23597;DHT22;40226;50.874;4.394;2023-04-12T14:19:11;11.10;65.50
23597;DHT22;40226;50.874;4.394;2023-04-12T14:21:37;11.10;82.80
23597;DHT22;40226;50.874;4.394;2023-04-12T14:24:02;11.60;60.00
23597;DHT22;40226;50.874;4.394;2023-04-12T14:26:28;12.90;1.00
23597;DHT22;40226;50.874;4.394;2023-04-12T14:28:54;14.10;1.00
23597;DHT22;40226;50.874;4.394;2023-04-12T14:31:19;15.50;1.00
23597;DHT22;40226;50.874;4.394;2023-04-12T14:33:45;16.60;99.90
23597;DHT22;40226;50.874;4.394;2023-04-12T14:36:11;17.20;1.00
23597;DHT22;40226;50.874;4.394;2023-04-12T14:38:36;16.70;1.00
23597;DHT22;40226;50.874;4.394;2023-04-12T14:41:06;18.20;1.00
23597;DHT22;40226;50.874;4.394;2023-04-12T14:43:33;17.20;12.20
23597;DHT22;40226;50.874;4.394;2023-04-12T14:45:58;17.50;99.90
23597;DHT22;40226;50.874;4.394;2023-04-12T14:48:24;18.40;99.90
23597;DHT22;40226;50.874;4.394;2023-04-12T14:50:50;18.00;1.00
23597;DHT22;40226;50.874;4.394;2023-04-12T14:53:15;17.30;99.90
23597;DHT22;40226;50.874;4.394;2023-04-12T14:55:43;16.90;1.00
23597;DHT22;40226;50.874;4.394;2023-04-12T14:58:08;16.20;53.10
23597;DHT22;40226;50.874;4.394;2023-04-12T15:00:34;15.30;99.90
23597;DHT22;40226;50.874;4.394;2023-04-12T15:03:00;14.50;99.90
23597;DHT22;40226;50.874;4.394;2023-04-12T15:05:26;14.40;1.00
23597;DHT22;40226;50.874;4.394;2023-04-12T15:07:52;14.60;99.90
23597;DHT22;40226;50.874;4.394;2023-04-12T15:10:18;14.80;1.00
23597;DHT22;40226;50.874;4.394;2023-04-12T15:12:45;14.80;99.90
23597;DHT22;40226;50.874;4.394;2023-04-12T15:15:11;15.40;1.00
23597;DHT22;40226;50.874;4.394;2023-04-12T15:17:36;16.30;99.90
23597;DHT22;40226;50.874;4.394;2023-04-12T15:20:03;17.30;99.90
23597;DHT22;40226;50.874;4.394;2023-04-12T15:22:38;17.20;1.00
23597;DHT22;40226;50.874;4.394;2023-04-12T15:25:04;16.50;1.00
23597;DHT22;40226;50.874;4.394;2023-04-12T15:27:31;16.40;99.90
23597;DHT22;40226;50.874;4.394;2023-04-12T15:29:57;16.40;99.90
23597;DHT22;40226;50.874;4.394;2023-04-12T15:32:23;16.60;99.90
23597;DHT22;40226;50.874;4.394;2023-04-12T15:34:53;15.50;99.90
23597;DHT22;40226;50.874;4.394;2023-04-12T15:37:21;14.60;1.00
23597;DHT22;40226;50.874;4.394;2023-04-12T15:39:46;14.50;1.00
23597;DHT22;40226;50.874;4.394;2023-04-12T15:42:12;15.20;1.00
23597;DHT22;40226;50.874;4.394;2023-04-12T15:44:39;15.30;1.00
23597;DHT22;40226;50.874;4.394;2023-04-12T15:47:05;15.90;1.00
23597;DHT22;40226;50.874;4.394;2023-04-12T15:49:31;16.50;99.90
23597;DHT22;40226;50.874;4.394;2023-04-12T15:51:56;16.90;99.90
23597;DHT22;40226;50.874;4.394;2023-04-12T15:54:23;16.80;99.90
23597;DHT22;40226;50.874;4.394;2023-04-12T15:56:49;16.70;99.90
23597;DHT22;40226;50.874;4.394;2023-04-12T15:59:15;16.70;99.90
23597;DHT22;40226;50.874;4.394;2023-04-12T16:01:43;17.20;99.90
23597;DHT22;40226;50.874;4.394;2023-04-12T16:04:09;17.20;99.90
23597;DHT22;40226;50.874;4.394;2023-04-12T16:06:35;16.80;99.90
23597;DHT22;40226;50.874;4.394;2023-04-12T16:09:02;16.20;99.90
23597;DHT22;40226;50.874;4.394;2023-04-12T16:11:29;14.70;70.40
23597;DHT22;40226;50.874;4.394;2023-04-12T16:13:58;14.30;99.90